首页
METAR-TAF:

METAR-TAF

机场 :

錫比烏, 罗马尼亚

纬度: 45-48N, 经度: 024-09E, 海拔: 443米

当前天气观测

该预报发布于33分钟前的22:00 UTC
静风
温度 5°C
湿度 65%
气压 1010 hPa
能见度10公里或以上
1500米以下无云,无积雨云

METAR: LRSB 292200Z 00000KT CAVOK 05/M01 Q1010

时间: 01:33 (22:33 UTC)

预报

该预报发布于5小时和33分钟前的17:00 UTC
预报有效从29日的 18点(UTC)到 30日的 18点(UTC)
风速10节,风向西
能见度10公里或以上
1500米以下无云,无积雨云
成为
从 29日的 18点(UTC)到 29日的 20点(UTC)
风速4节,风向多变
成为
从 30日的 08点(UTC)到 30日的 10点(UTC)
风速10节,风向北转西北
短暂存在
从 30日的 12点(UTC)到 30日的 17点(UTC)
风速15节,风向北转西北,有时为25节阵风
能見度: 5000
散云层高于3000英尺, 积雨云.
多云层高于4000英尺
阵雨

TAF: LRSB 291700Z 2918/3018 26010KT CAVOK BECMG 2918/2920 VRB04KT BECMG 3008/3010 34010KT TEMPO 3012/3017 34015G25KT 5000 SHRA SCT030CB BKN040

超过4000个机场的气象观测和天气预报(METAR&TAF报告)。

可查询的气象台以黄色和红色小点在地图上表示。

将鼠标移到小点上方,可查看气象台名称。

然后点击查看天气观测和预报。

如需切换地图:点击带黑十字的绿色按钮放大地图;点击带横线的绿色按钮缩小地图;或者点击绿色箭头查看邻近地区的地图。


METAR-TAF: